createdAt,value
2018-08-30T00:01:19.398Z,18.90
2018-08-30T00:03:47.567Z,18.80
2018-08-30T00:06:15.743Z,18.90
2018-08-30T00:08:43.911Z,18.90
2018-08-30T00:11:12.315Z,18.90
2018-08-30T00:13:40.474Z,18.90
2018-08-30T00:16:08.650Z,18.90
2018-08-30T00:18:36.827Z,18.80
2018-08-30T00:21:05.189Z,18.80
2018-08-30T00:23:33.375Z,18.70
2018-08-30T00:26:01.560Z,18.70
2018-08-30T00:28:29.742Z,18.60
2018-08-30T00:30:58.194Z,18.60
2018-08-30T00:33:26.366Z,18.50
2018-08-30T00:35:54.546Z,18.40
2018-08-30T00:38:22.734Z,18.50
2018-08-30T00:40:50.910Z,18.40
2018-08-30T00:43:19.075Z,18.50
2018-08-30T00:45:47.253Z,18.50
2018-08-30T00:48:15.420Z,18.60
2018-08-30T00:50:43.611Z,18.60
2018-08-30T00:53:11.776Z,18.50
2018-08-30T00:55:39.949Z,18.50
2018-08-30T00:58:08.168Z,18.50
2018-08-30T01:00:36.684Z,18.60
2018-08-30T01:03:04.876Z,18.50
2018-08-30T01:05:33.070Z,18.50
2018-08-30T01:08:01.250Z,18.40
2018-08-30T01:10:29.415Z,18.40
2018-08-30T01:12:57.610Z,18.40
2018-08-30T01:15:27.034Z,18.30
2018-08-30T01:17:55.730Z,18.30
2018-08-30T01:20:23.934Z,18.50
2018-08-30T01:22:52.106Z,18.50
2018-08-30T01:25:20.549Z,18.30
2018-08-30T01:27:49.031Z,18.50
2018-08-30T01:30:17.501Z,18.60
2018-08-30T01:32:45.969Z,18.60
2018-08-30T01:35:14.180Z,18.60
2018-08-30T01:37:42.376Z,18.60
2018-08-30T01:40:10.583Z,18.70
2018-08-30T01:42:38.766Z,18.70
2018-08-30T01:45:06.938Z,18.50
2018-08-30T01:47:35.130Z,18.60
2018-08-30T01:50:03.365Z,18.60
2018-08-30T01:52:31.526Z,18.70
2018-08-30T01:54:59.702Z,18.70
2018-08-30T01:57:27.883Z,18.60
2018-08-30T01:59:56.050Z,18.60
2018-08-30T02:02:24.276Z,18.60
2018-08-30T02:04:52.390Z,18.60
2018-08-30T02:07:20.809Z,18.60
2018-08-30T02:09:48.979Z,18.60
2018-08-30T02:12:17.180Z,18.50
2018-08-30T02:14:45.440Z,18.60
2018-08-30T02:17:13.584Z,18.60
2018-08-30T02:19:41.750Z,18.60
2018-08-30T02:22:10.474Z,18.50
2018-08-30T02:24:38.649Z,18.50
2018-08-30T02:27:06.847Z,18.50
2018-08-30T02:29:35.031Z,18.60
2018-08-30T02:32:03.227Z,18.60
2018-08-30T02:34:31.395Z,18.60
2018-08-30T02:36:59.594Z,18.60
2018-08-30T02:39:27.783Z,18.60
2018-08-30T02:41:55.949Z,18.60
2018-08-30T02:44:24.350Z,18.70
2018-08-30T02:46:52.555Z,18.70
2018-08-30T02:49:20.734Z,18.60
2018-08-30T02:51:48.939Z,18.70
2018-08-30T02:54:17.160Z,18.70
2018-08-30T02:56:45.348Z,18.70
2018-08-30T02:59:13.838Z,18.60
2018-08-30T03:01:42.007Z,18.50
2018-08-30T03:04:10.184Z,18.60
2018-08-30T03:06:38.387Z,18.60
2018-08-30T03:09:08.002Z,18.60
2018-08-30T03:11:36.166Z,18.70
2018-08-30T03:14:04.347Z,18.70
2018-08-30T03:16:32.514Z,18.70
2018-08-30T03:19:00.727Z,18.70
2018-08-30T03:21:28.915Z,18.70
2018-08-30T03:23:57.082Z,18.50
2018-08-30T03:26:25.260Z,18.50
2018-08-30T03:28:53.438Z,18.50
2018-08-30T03:31:21.636Z,18.50
2018-08-30T03:33:49.864Z,18.50
2018-08-30T03:36:18.039Z,18.50
2018-08-30T03:38:46.513Z,18.50
2018-08-30T03:41:14.689Z,18.60
2018-08-30T03:43:42.870Z,18.40
2018-08-30T03:46:11.038Z,18.40
2018-08-30T03:48:39.266Z,18.40
2018-08-30T03:51:07.443Z,18.40
2018-08-30T03:53:35.626Z,18.40
2018-08-30T03:56:03.815Z,18.40
2018-08-30T03:58:32.002Z,18.30
2018-08-30T04:01:00.172Z,18.50
2018-08-30T04:03:28.345Z,18.50
2018-08-30T04:05:56.518Z,18.60
2018-08-30T04:08:24.706Z,18.60
2018-08-30T04:10:52.874Z,18.60
2018-08-30T04:13:21.120Z,18.60
2018-08-30T04:15:49.293Z,18.60
2018-08-30T04:18:17.499Z,18.50
2018-08-30T04:20:45.685Z,18.60
2018-08-30T04:23:13.868Z,18.70
2018-08-30T04:25:42.043Z,18.80
2018-08-30T04:28:10.223Z,18.60
2018-08-30T04:30:38.410Z,18.60
2018-08-30T04:33:06.587Z,18.70
2018-08-30T04:35:34.774Z,18.60
2018-08-30T04:38:03.387Z,18.60
2018-08-30T04:40:31.566Z,18.60
2018-08-30T04:42:59.730Z,18.60
2018-08-30T04:45:27.905Z,18.60
2018-08-30T04:47:56.066Z,18.60
2018-08-30T04:50:24.320Z,18.60
2018-08-30T04:52:52.480Z,18.60
2018-08-30T04:55:20.738Z,18.60
2018-08-30T04:57:48.927Z,18.60
2018-08-30T05:00:17.128Z,18.60
2018-08-30T05:02:45.295Z,18.60
2018-08-30T05:05:13.484Z,18.60
2018-08-30T05:07:41.654Z,18.60
2018-08-30T05:10:09.898Z,18.50
2018-08-30T05:12:38.010Z,18.50
2018-08-30T05:15:06.490Z,18.40
2018-08-30T05:17:34.662Z,18.40
2018-08-30T05:20:02.846Z,18.30
2018-08-30T05:22:31.018Z,18.30
2018-08-30T05:24:59.199Z,18.30
2018-08-30T05:27:27.363Z,18.10
2018-08-30T05:29:55.611Z,18.20
2018-08-30T05:32:23.718Z,18.30
2018-08-30T05:34:51.927Z,18.20
2018-08-30T05:37:20.145Z,18.00
2018-08-30T05:39:48.331Z,18.10
2018-08-30T05:42:16.503Z,18.10
2018-08-30T05:44:44.726Z,18.10
2018-08-30T05:47:12.879Z,18.00
2018-08-30T05:49:41.070Z,17.90
2018-08-30T05:52:09.240Z,17.90
2018-08-30T05:54:37.423Z,17.90
2018-08-30T05:57:05.592Z,18.00
2018-08-30T05:59:33.769Z,18.10
2018-08-30T06:02:02.275Z,18.20
2018-08-30T06:04:30.787Z,18.20
2018-08-30T06:06:58.966Z,18.20
2018-08-30T06:09:27.143Z,18.20
2018-08-30T06:11:55.311Z,18.10
2018-08-30T06:14:23.737Z,18.10
2018-08-30T06:16:51.929Z,18.10
2018-08-30T06:19:20.119Z,18.10
2018-08-30T06:21:48.304Z,18.10
2018-08-30T06:24:16.723Z,18.10
2018-08-30T06:26:44.959Z,17.90
2018-08-30T06:29:13.089Z,17.80
2018-08-30T06:31:41.265Z,17.90
2018-08-30T06:34:09.731Z,18.00
2018-08-30T06:36:37.904Z,18.00
2018-08-30T06:39:07.386Z,17.90
2018-08-30T06:41:35.567Z,17.90
2018-08-30T06:44:03.962Z,18.00
2018-08-30T06:46:32.146Z,17.90
2018-08-30T06:49:00.691Z,17.90
2018-08-30T06:51:29.070Z,17.90
2018-08-30T06:53:57.293Z,17.90
2018-08-30T06:56:25.617Z,18.00
2018-08-30T06:58:53.707Z,18.10
2018-08-30T07:01:21.889Z,18.10
2018-08-30T07:03:50.059Z,18.20
2018-08-30T07:06:18.246Z,18.20
2018-08-30T07:08:46.416Z,18.10
2018-08-30T07:11:14.882Z,18.00
2018-08-30T07:13:43.054Z,18.00
2018-08-30T07:16:11.222Z,17.90
2018-08-30T07:18:39.396Z,17.90
2018-08-30T07:21:07.624Z,17.90
2018-08-30T07:23:35.751Z,17.90
2018-08-30T07:26:03.931Z,17.80
2018-08-30T07:28:32.124Z,17.80
2018-08-30T07:31:00.295Z,17.70
2018-08-30T07:33:28.486Z,17.80
2018-08-30T07:35:56.656Z,17.80
2018-08-30T07:38:24.864Z,17.80
2018-08-30T07:40:53.084Z,17.80
2018-08-30T07:43:21.551Z,17.80
2018-08-30T07:45:49.967Z,17.90
2018-08-30T07:48:18.139Z,17.90
2018-08-30T07:50:46.370Z,17.90
2018-08-30T07:53:14.489Z,18.00
2018-08-30T07:55:42.959Z,18.00
2018-08-30T07:58:11.131Z,18.00
2018-08-30T08:00:39.347Z,18.00
2018-08-30T08:03:07.522Z,18.10
2018-08-30T08:05:35.686Z,18.10
2018-08-30T08:08:03.884Z,18.10
2018-08-30T08:10:32.091Z,18.20
2018-08-30T08:13:00.266Z,18.20
2018-08-30T08:15:28.750Z,18.20
2018-08-30T08:17:56.927Z,18.20
2018-08-30T08:20:25.103Z,18.30
2018-08-30T08:22:53.339Z,18.40
2018-08-30T08:25:21.617Z,18.40
2018-08-30T08:27:49.769Z,18.40
2018-08-30T08:30:17.942Z,18.50
2018-08-30T08:32:46.126Z,18.50
2018-08-30T08:35:14.291Z,18.60
2018-08-30T08:37:42.468Z,18.70
2018-08-30T08:40:10.651Z,18.50
2018-08-30T08:42:38.926Z,18.60
2018-08-30T08:45:07.098Z,18.70
2018-08-30T08:47:35.309Z,18.80
2018-08-30T08:50:03.474Z,18.80
2018-08-30T08:52:31.654Z,18.80
2018-08-30T08:55:00.155Z,18.80
2018-08-30T08:57:28.443Z,18.80
2018-08-30T08:59:56.618Z,18.80
2018-08-30T09:02:24.819Z,18.80
2018-08-30T09:04:53.044Z,18.80
2018-08-30T09:07:21.341Z,18.70
2018-08-30T09:09:49.620Z,18.70
2018-08-30T09:12:17.817Z,18.70
2018-08-30T09:14:46.005Z,18.80
2018-08-30T09:17:14.194Z,18.80
2018-08-30T09:19:42.371Z,18.70
2018-08-30T09:22:10.578Z,18.80
2018-08-30T09:24:38.759Z,18.90
2018-08-30T09:27:06.950Z,18.90
2018-08-30T09:29:35.394Z,18.90
2018-08-30T09:32:03.818Z,18.90
2018-08-30T09:34:31.987Z,18.90
2018-08-30T09:37:00.220Z,19.00
2018-08-30T09:39:28.402Z,19.00
2018-08-30T09:41:56.812Z,19.00
2018-08-30T09:44:24.980Z,19.00
2018-08-30T09:46:53.175Z,19.10
2018-08-30T09:49:21.349Z,19.10
2018-08-30T09:51:49.511Z,19.10
2018-08-30T09:54:17.720Z,19.20
2018-08-30T09:56:45.944Z,19.30
2018-08-30T09:59:14.124Z,19.10
2018-08-30T10:01:49.130Z,19.10
2018-08-30T10:04:18.242Z,19.10
2018-08-30T10:06:46.442Z,19.10
2018-08-30T10:09:14.659Z,19.10
2018-08-30T10:11:42.879Z,19.10
2018-08-30T10:14:11.059Z,19.30
2018-08-30T10:16:39.240Z,19.30
2018-08-30T10:19:07.410Z,19.30
2018-08-30T10:21:35.662Z,19.40
2018-08-30T10:24:03.786Z,19.50
2018-08-30T10:26:32.146Z,19.20
2018-08-30T10:29:00.349Z,19.20
2018-08-30T10:31:28.564Z,19.20
2018-08-30T10:33:56.735Z,19.40
2018-08-30T10:36:24.954Z,19.60
2018-08-30T10:38:53.160Z,19.70
2018-08-30T10:41:21.385Z,19.80
2018-08-30T10:43:49.584Z,19.80
2018-08-30T10:46:17.796Z,19.70
2018-08-30T10:48:45.983Z,19.70
2018-08-30T10:51:14.159Z,19.90
2018-08-30T10:53:42.331Z,19.90
2018-08-30T10:56:10.554Z,19.90
2018-08-30T10:58:38.678Z,19.90
2018-08-30T11:01:07.203Z,19.70
2018-08-30T11:03:35.410Z,19.50
2018-08-30T11:06:03.595Z,19.60
2018-08-30T11:08:31.778Z,19.60
2018-08-30T11:10:59.950Z,19.60
2018-08-30T11:13:28.160Z,19.60
2018-08-30T11:15:56.310Z,19.50
2018-08-30T11:18:24.494Z,19.50
2018-08-30T11:20:52.712Z,19.50
2018-08-30T11:23:20.940Z,19.60
2018-08-30T11:25:49.118Z,19.70
2018-08-30T11:28:17.310Z,19.70
2018-08-30T11:30:45.482Z,19.90
2018-08-30T11:33:13.665Z,20.10
2018-08-30T11:35:41.838Z,20.10
2018-08-30T11:38:10.015Z,20.20
2018-08-30T11:40:38.189Z,20.20
2018-08-30T11:43:06.362Z,20.30
2018-08-30T11:45:34.559Z,20.30
2018-08-30T11:48:03.039Z,20.20
2018-08-30T11:50:31.223Z,20.20
2018-08-30T11:52:59.389Z,20.20
2018-08-30T11:55:27.571Z,20.30
2018-08-30T11:57:55.738Z,20.30
2018-08-30T12:00:23.986Z,20.30
2018-08-30T12:02:52.212Z,20.10
2018-08-30T12:05:20.454Z,19.90
2018-08-30T12:07:49.543Z,19.90
2018-08-30T12:10:17.744Z,19.80
2018-08-30T12:12:45.871Z,19.90
2018-08-30T12:15:14.051Z,19.90
2018-08-30T12:17:42.227Z,19.80
2018-08-30T12:20:10.410Z,19.90
2018-08-30T12:22:38.578Z,19.90
2018-08-30T12:25:06.775Z,19.80
2018-08-30T12:27:34.950Z,19.80
2018-08-30T12:30:03.193Z,19.70
2018-08-30T12:32:31.429Z,19.70
2018-08-30T12:34:59.612Z,19.80
2018-08-30T12:37:27.738Z,20.00
2018-08-30T12:39:56.010Z,20.00
2018-08-30T12:42:24.066Z,20.10
2018-08-30T12:44:52.298Z,20.10
2018-08-30T12:47:20.481Z,20.00
2018-08-30T12:49:48.684Z,20.00
2018-08-30T12:52:16.879Z,20.00
2018-08-30T12:54:45.118Z,19.90
2018-08-30T12:57:13.244Z,19.90
2018-08-30T12:59:42.547Z,19.80
2018-08-30T13:02:10.855Z,19.80
2018-08-30T13:04:39.230Z,19.80
2018-08-30T13:07:07.693Z,19.80
2018-08-30T13:09:35.902Z,19.80
2018-08-30T13:12:04.093Z,19.80
2018-08-30T13:14:32.326Z,19.80
2018-08-30T13:17:00.469Z,19.70
2018-08-30T13:19:29.036Z,19.80
2018-08-30T13:21:57.141Z,19.80
2018-08-30T13:24:25.439Z,19.70
2018-08-30T13:26:53.607Z,19.70
2018-08-30T13:29:21.918Z,19.60
2018-08-30T13:31:50.400Z,19.60
2018-08-30T13:34:18.530Z,19.50
2018-08-30T13:36:46.620Z,19.50
2018-08-30T13:39:15.119Z,19.50
2018-08-30T13:41:43.401Z,19.50
2018-08-30T13:44:12.045Z,19.50
2018-08-30T13:46:41.356Z,19.60
2018-08-30T13:49:10.109Z,19.70
2018-08-30T13:51:38.120Z,19.80
2018-08-30T13:54:06.420Z,19.80
2018-08-30T13:56:35.094Z,19.80
2018-08-30T13:59:03.363Z,19.80
2018-08-30T14:01:31.669Z,19.80
2018-08-30T14:03:59.344Z,19.80
2018-08-30T14:06:27.523Z,19.90
2018-08-30T14:08:55.880Z,20.00
2018-08-30T14:11:24.039Z,20.10
2018-08-30T14:13:52.138Z,20.00
2018-08-30T14:16:20.067Z,19.90
2018-08-30T14:18:48.925Z,20.00
2018-08-30T14:21:17.271Z,20.10
2018-08-30T14:23:45.435Z,20.00
2018-08-30T14:26:13.624Z,20.00
2018-08-30T14:28:41.856Z,20.10
2018-08-30T14:31:10.112Z,20.00
2018-08-30T14:33:38.298Z,20.00
2018-08-30T14:36:06.514Z,20.00
2018-08-30T14:38:34.901Z,19.90
2018-08-30T14:41:03.117Z,19.90
2018-08-30T14:43:31.249Z,19.90
2018-08-30T14:45:59.410Z,19.90
2018-08-30T14:48:27.630Z,19.80
2018-08-30T14:50:55.809Z,19.70
2018-08-30T14:53:24.583Z,19.70
2018-08-30T14:55:52.758Z,19.70
2018-08-30T14:58:20.951Z,19.70
2018-08-30T15:00:49.154Z,19.70
2018-08-30T15:03:17.334Z,19.80
2018-08-30T15:05:45.833Z,19.80
2018-08-30T15:08:13.935Z,19.90
2018-08-30T15:10:42.114Z,19.80
2018-08-30T15:13:10.387Z,19.90
2018-08-30T15:15:38.517Z,19.90
2018-08-30T15:18:06.708Z,19.90
2018-08-30T15:20:35.006Z,20.00
2018-08-30T15:23:03.432Z,20.00
2018-08-30T15:25:31.604Z,20.10
2018-08-30T15:27:59.778Z,20.00
2018-08-30T15:30:28.049Z,20.10
2018-08-30T15:32:56.139Z,20.10
2018-08-30T15:35:24.667Z,20.10
2018-08-30T15:37:53.023Z,20.10
2018-08-30T15:40:21.440Z,20.20
2018-08-30T15:42:49.618Z,20.20
2018-08-30T15:45:17.789Z,20.20
2018-08-30T15:47:45.964Z,20.20
2018-08-30T15:50:14.136Z,20.10
2018-08-30T15:52:42.451Z,20.10
2018-08-30T15:55:10.507Z,20.10
2018-08-30T15:57:38.912Z,20.30
2018-08-30T16:00:07.283Z,20.20
2018-08-30T16:02:35.475Z,20.20
2018-08-30T16:05:03.704Z,20.30
2018-08-30T16:07:32.098Z,20.40
2018-08-30T16:10:00.266Z,20.40
2018-08-30T16:12:28.441Z,20.50
2018-08-30T16:14:56.620Z,20.60
2018-08-30T16:17:24.914Z,20.70
2018-08-30T16:19:52.978Z,20.70
2018-08-30T16:22:26.749Z,20.80
2018-08-30T16:24:55.083Z,20.90
2018-08-30T16:27:23.106Z,20.90
2018-08-30T16:29:51.299Z,20.70
2018-08-30T16:32:19.479Z,20.50
2018-08-30T16:34:47.684Z,20.50
2018-08-30T16:37:15.910Z,20.30
2018-08-30T16:39:44.145Z,20.40
2018-08-30T16:42:12.337Z,20.30
2018-08-30T16:44:40.467Z,20.30
2018-08-30T16:47:08.704Z,20.20
2018-08-30T16:49:36.822Z,20.20
2018-08-30T16:52:05.218Z,20.10
2018-08-30T16:54:33.317Z,20.10
2018-08-30T16:57:01.444Z,20.10
2018-08-30T16:59:29.677Z,20.10
2018-08-30T17:01:57.917Z,20.00
2018-08-30T17:04:26.058Z,20.00
2018-08-30T17:06:54.243Z,20.00
2018-08-30T17:09:22.418Z,20.00
2018-08-30T17:11:50.603Z,19.90
2018-08-30T17:14:18.785Z,20.00
2018-08-30T17:16:47.194Z,19.90
2018-08-30T17:19:26.431Z,19.90
2018-08-30T17:21:54.652Z,19.80
2018-08-30T17:24:22.843Z,19.80
2018-08-30T17:26:51.014Z,19.80
2018-08-30T17:29:19.202Z,19.80
2018-08-30T17:31:47.492Z,19.80
2018-08-30T17:34:15.563Z,19.80
2018-08-30T17:36:43.728Z,19.80
2018-08-30T17:39:12.094Z,19.70
2018-08-30T17:41:40.144Z,19.60
2018-08-30T17:44:08.490Z,19.60
2018-08-30T17:46:37.126Z,19.60
2018-08-30T17:49:05.378Z,19.60
2018-08-30T17:51:33.783Z,19.60
2018-08-30T17:54:01.958Z,19.60
2018-08-30T17:56:30.139Z,19.50
2018-08-30T17:58:58.361Z,19.60
2018-08-30T18:01:26.575Z,19.50
2018-08-30T18:03:54.710Z,19.50
2018-08-30T18:06:23.213Z,19.40
2018-08-30T18:08:51.381Z,19.40
2018-08-30T18:11:19.559Z,19.40
2018-08-30T18:13:47.741Z,19.40
2018-08-30T18:16:15.946Z,19.40
2018-08-30T18:18:44.130Z,19.30
2018-08-30T18:21:12.303Z,19.30
2018-08-30T18:23:40.747Z,19.30
2018-08-30T18:26:08.918Z,19.20
2018-08-30T18:28:37.116Z,19.20
2018-08-30T18:31:05.279Z,19.10
2018-08-30T18:33:33.463Z,19.00
2018-08-30T18:36:01.630Z,19.00
2018-08-30T18:38:29.807Z,18.90
2018-08-30T18:40:58.502Z,18.90
2018-08-30T18:43:26.683Z,18.90
2018-08-30T18:45:54.863Z,18.90
2018-08-30T18:48:23.038Z,18.80
2018-08-30T18:50:51.234Z,18.80
2018-08-30T18:53:19.449Z,18.90
2018-08-30T18:55:47.647Z,18.90
2018-08-30T18:58:15.855Z,18.90
2018-08-30T19:00:44.254Z,18.90
2018-08-30T19:03:12.424Z,18.90
2018-08-30T19:05:40.619Z,18.90
2018-08-30T19:08:08.796Z,18.90
2018-08-30T19:10:37.050Z,18.90
2018-08-30T19:13:05.224Z,18.90
2018-08-30T19:15:38.946Z,18.90
2018-08-30T19:18:12.457Z,18.90
2018-08-30T19:20:40.744Z,18.80
2018-08-30T19:23:08.899Z,18.90
2018-08-30T19:25:37.088Z,18.80
2018-08-30T19:28:05.259Z,18.80
2018-08-30T19:30:33.606Z,18.80
2018-08-30T19:33:01.806Z,18.80
2018-08-30T19:35:35.534Z,18.70
2018-08-30T19:38:03.759Z,18.60
2018-08-30T19:40:37.494Z,18.50
2018-08-30T19:43:05.864Z,18.50
2018-08-30T19:45:34.184Z,18.40
2018-08-30T19:48:02.891Z,18.40
2018-08-30T19:50:31.056Z,18.40
2018-08-30T19:52:59.227Z,18.40
2018-08-30T19:55:27.411Z,18.30
2018-08-30T19:57:55.587Z,18.30
2018-08-30T20:00:24.262Z,18.20
2018-08-30T20:02:52.452Z,18.20
2018-08-30T20:05:20.622Z,18.20
2018-08-30T20:07:48.849Z,18.20
2018-08-30T20:10:17.287Z,18.10
2018-08-30T20:12:45.459Z,18.10
2018-08-30T20:15:13.648Z,18.10
2018-08-30T20:17:42.137Z,18.10
2018-08-30T20:20:10.326Z,18.10
2018-08-30T20:22:38.498Z,18.10
2018-08-30T20:25:07.045Z,18.10
2018-08-30T20:27:35.505Z,18.10
2018-08-30T20:30:03.756Z,18.20
2018-08-30T20:32:31.944Z,18.10
2018-08-30T20:35:00.420Z,18.10
2018-08-30T20:37:28.914Z,18.10
2018-08-30T20:39:57.103Z,18.10
2018-08-30T20:42:25.275Z,18.10
2018-08-30T20:44:53.461Z,18.10
2018-08-30T20:47:21.640Z,18.10
2018-08-30T20:49:49.814Z,18.10
2018-08-30T20:52:17.991Z,18.10
2018-08-30T20:54:46.163Z,18.10
2018-08-30T20:57:14.653Z,18.20
2018-08-30T20:59:42.886Z,18.20
2018-08-30T21:02:11.055Z,18.20
2018-08-30T21:04:39.267Z,18.20
2018-08-30T21:07:07.488Z,18.20
2018-08-30T21:09:35.693Z,18.20
2018-08-30T21:12:03.987Z,18.20
2018-08-30T21:14:32.167Z,18.20
2018-08-30T21:17:00.345Z,18.10
2018-08-30T21:19:28.521Z,18.10
2018-08-30T21:21:56.702Z,18.00
2018-08-30T21:24:24.883Z,18.10
2018-08-30T21:26:53.058Z,18.00
2018-08-30T21:29:21.240Z,18.00
2018-08-30T21:31:49.413Z,18.00
2018-08-30T21:34:17.588Z,18.00
2018-08-30T21:36:45.758Z,18.00
2018-08-30T21:39:13.930Z,18.00
2018-08-30T21:41:42.438Z,17.90
2018-08-30T21:44:10.620Z,18.00
2018-08-30T21:46:38.807Z,18.00
2018-08-30T21:49:07.097Z,18.00
2018-08-30T21:51:36.283Z,18.00
2018-08-30T21:54:04.496Z,18.00
2018-08-30T21:56:32.682Z,18.00
2018-08-30T21:59:00.859Z,18.00
2018-08-30T22:01:29.047Z,18.00
2018-08-30T22:03:57.222Z,18.00
2018-08-30T22:06:25.677Z,18.10
2018-08-30T22:08:53.866Z,18.00
2018-08-30T22:11:22.087Z,18.00
2018-08-30T22:13:50.259Z,18.00
2018-08-30T22:16:18.434Z,18.00
2018-08-30T22:18:46.610Z,18.00
2018-08-30T22:21:14.790Z,18.00
2018-08-30T22:23:42.974Z,18.00
2018-08-30T22:26:11.272Z,18.00
2018-08-30T22:28:39.551Z,18.00
2018-08-30T22:31:07.780Z,18.00
2018-08-30T22:33:35.984Z,18.00
2018-08-30T22:36:04.202Z,18.00
2018-08-30T22:38:32.631Z,17.90
2018-08-30T22:41:01.134Z,17.90
2018-08-30T22:43:29.311Z,17.90
2018-08-30T22:45:57.499Z,17.90
2018-08-30T22:48:25.689Z,17.90
2018-08-30T22:50:53.866Z,17.90
2018-08-30T22:53:22.043Z,17.80
2018-08-30T22:55:50.223Z,17.80
2018-08-30T22:58:18.414Z,17.80
2018-08-30T23:00:46.590Z,17.80
2018-08-30T23:03:14.770Z,17.80
2018-08-30T23:05:42.951Z,17.80
2018-08-30T23:08:11.184Z,17.80
2018-08-30T23:10:39.406Z,17.80
2018-08-30T23:13:07.887Z,17.80
2018-08-30T23:15:36.094Z,17.80
2018-08-30T23:18:04.279Z,17.70
2018-08-30T23:20:32.466Z,17.60
2018-08-30T23:23:00.662Z,17.60
2018-08-30T23:25:28.843Z,17.60
2018-08-30T23:27:57.346Z,17.50
2018-08-30T23:30:25.849Z,17.50
2018-08-30T23:32:54.310Z,17.50
2018-08-30T23:35:22.866Z,17.50
2018-08-30T23:37:51.148Z,17.50
2018-08-30T23:40:19.320Z,17.50
2018-08-30T23:42:47.763Z,17.60
2018-08-30T23:45:15.966Z,17.60
2018-08-30T23:47:44.201Z,17.60
2018-08-30T23:50:12.396Z,17.60
2018-08-30T23:52:40.608Z,17.70
2018-08-30T23:55:08.783Z,17.70
2018-08-30T23:57:42.291Z,17.60
